Time;durP1;ratioP1;P1;durP2;ratioP2;P2;SDS_P1;SDS_P2;PMS_P1;PMS_P2;Temp;Humidity;BMP_temperature;BMP_pressure;BME280_temperature;BME280_humidity;BME280_pressure;Samples;Min_cycle;Max_cycle;Signal;HPM_P1;HPM_P2
2022/09/25 00:01:32;;;;;;;;;;;16.80;99.90;;;;;;4999285;28;19910;-73
2022/09/25 00:03:59;;;;;;;;;;;16.90;99.90;;;;;;4972153;28;19933;-73
2022/09/25 00:06:28;;;;;;;;;;;17.00;99.90;;;;;;5017845;28;20401;-77
2022/09/25 00:08:56;;;;;;;;;;;17.10;99.90;;;;;;4985485;28;20318;-73
2022/09/25 00:11:27;;;;;;;;;;;17.20;99.90;;;;;;4973609;28;20017;-75
2022/09/25 00:13:54;;;;;;;;;;;17.30;99.80;;;;;;5035813;28;19916;-70
2022/09/25 00:16:22;;;;;;;;;;;17.30;98.90;;;;;;5046461;28;20616;-73
2022/09/25 00:21:34;;;;;;;;;;;17.50;97.80;;;;;;5053784;28;19936;-74
2022/09/25 00:24:02;;;;;;;;;;;17.60;97.40;;;;;;4969154;28;20278;-71
2022/09/25 00:26:30;;;;;;;;;;;17.70;96.90;;;;;;4971802;28;20336;-71
2022/09/25 00:29:00;;;;;;;;;;;17.80;95.90;;;;;;4972103;28;19999;-75
2022/09/25 00:31:28;;;;;;;;;;;17.90;95.50;;;;;;4972205;28;19989;-72
2022/09/25 00:33:56;;;;;;;;;;;17.80;96.00;;;;;;4985208;28;19913;-76
2022/09/25 00:36:23;;;;;;;;;;;18.10;95.30;;;;;;5048487;28;19923;-76
2022/09/25 00:38:50;;;;;;;;;;;18.20;94.90;;;;;;4971462;28;20309;-76
2022/09/25 00:41:18;;;;;;;;;;;18.30;94.50;;;;;;4971603;28;19949;-75
2022/09/25 00:43:47;;;;;;;;;;;18.40;94.10;;;;;;4971192;28;19922;-76
2022/09/25 00:46:23;;;;;;;;;;;18.50;94.50;;;;;;4971392;28;19960;-75
2022/09/25 00:48:52;;;;;;;;;;;18.50;93.50;;;;;;4970026;28;19941;-70
2022/09/25 00:51:21;;;;;;;;;;;18.60;93.10;;;;;;4972251;28;19914;-71
2022/09/25 00:53:48;;;;;;;;;;;18.70;91.90;;;;;;4971448;28;19910;-74
2022/09/25 00:56:15;;;;;;;;;;;18.70;91.60;;;;;;5016094;28;20000;-72
2022/09/25 00:58:41;;;;;;;;;;;18.90;92.00;;;;;;5072033;28;20384;-74
2022/09/25 01:01:08;;;;;;;;;;;19.10;92.20;;;;;;5073266;28;19962;-74
2022/09/25 01:03:36;;;;;;;;;;;19.10;90.80;;;;;;5073080;28;19931;-71
2022/09/25 01:06:03;;;;;;;;;;;19.20;91.80;;;;;;4977660;28;19921;-75
2022/09/25 01:08:31;;;;;;;;;;;19.30;91.00;;;;;;4976009;28;19960;-75
2022/09/25 01:10:58;;;;;;;;;;;19.40;91.00;;;;;;5041132;28;19919;-73
2022/09/25 01:13:25;;;;;;;;;;;19.50;89.20;;;;;;5072959;28;19905;-72
2022/09/25 01:15:54;;;;;;;;;;;19.50;87.40;;;;;;5073384;28;19947;-74
2022/09/25 01:18:37;;;;;;;;;;;19.70;89.60;;;;;;5073073;28;19913;-72
2022/09/25 01:21:13;;;;;;;;;;;19.90;87.90;;;;;;5066278;28;19913;-74
2022/09/25 01:23:39;;;;;;;;;;;20.10;87.60;;;;;;5034380;28;19929;-76
2022/09/25 01:26:06;;;;;;;;;;;20.20;87.10;;;;;;4983313;28;20005;-76
2022/09/25 01:28:35;;;;;;;;;;;20.20;86.70;;;;;;5007991;28;20349;-77
2022/09/25 01:31:03;;;;;;;;;;;20.40;86.40;;;;;;5060099;28;19912;-77
2022/09/25 01:33:41;;;;;;;;;;;20.50;83.60;;;;;;5019418;28;19914;-77
2022/09/25 01:36:17;;;;;;;;;;;20.50;83.20;;;;;;4970819;28;19976;-70
2022/09/25 01:38:49;;;;;;;;;;;20.70;84.00;;;;;;4970865;28;19997;-71
2022/09/25 01:41:19;;;;;;;;;;;20.90;82.50;;;;;;4970644;28;20001;-74
2022/09/25 01:44:09;;;;;;;;;;;21.10;85.00;;;;;;4970483;28;19964;-76
2022/09/25 01:46:38;;;;;;;;;;;21.40;80.90;;;;;;4972862;28;19926;-72
2022/09/25 01:49:27;;;;;;;;;;;21.60;80.30;;;;;;4970297;28;19926;-70
2022/09/25 01:51:55;;;;;;;;;;;21.80;79.20;;;;;;4958653;28;19914;-70
2022/09/25 01:54:42;;;;;;;;;;;22.00;78.70;;;;;;4971274;28;19910;-71
2022/09/25 01:57:26;;;;;;;;;;;21.90;78.30;;;;;;4972700;28;19918;-71
2022/09/25 02:00:01;;;;;;;;;;;22.10;78.60;;;;;;4970880;28;19917;-77
2022/09/25 02:02:35;;;;;;;;;;;22.30;80.00;;;;;;4970866;28;20502;-76
2022/09/25 02:05:08;;;;;;;;;;;22.50;76.60;;;;;;4970787;28;19914;-70
2022/09/25 02:07:40;;;;;;;;;;;22.70;80.30;;;;;;4970576;28;19949;-72
2022/09/25 02:10:08;;;;;;;;;;;23.00;76.10;;;;;;4970998;28;20381;-71
2022/09/25 02:12:47;;;;;;;;;;;22.90;72.00;;;;;;4970139;28;19914;-70
2022/09/25 02:15:19;;;;;;;;;;;23.00;72.50;;;;;;4970538;28;19994;-70
2022/09/25 02:20:57;;;;;;;;;;;23.00;73.30;;;;;;4970713;28;19918;-72
2022/09/25 02:23:46;;;;;;;;;;;23.10;73.80;;;;;;4970209;28;20044;-69
2022/09/25 02:26:16;;;;;;;;;;;23.00;77.00;;;;;;4970567;28;19910;-70
2022/09/25 02:28:42;;;;;;;;;;;23.40;75.90;;;;;;4970091;28;20022;-70
2022/09/25 02:31:11;;;;;;;;;;;23.40;74.40;;;;;;4969576;28;19963;-70
2022/09/25 02:33:38;;;;;;;;;;;23.70;71.50;;;;;;4973603;28;19993;-70
2022/09/25 02:36:05;;;;;;;;;;;23.80;72.20;;;;;;4981411;28;19924;-72
2022/09/25 02:38:32;;;;;;;;;;;24.00;71.90;;;;;;4976473;28;19918;-71
2022/09/25 02:41:03;;;;;;;;;;;24.10;70.80;;;;;;4977440;28;19914;-71
2022/09/25 02:43:29;;;;;;;;;;;24.20;71.60;;;;;;4977575;28;19929;-75
2022/09/25 02:46:10;;;;;;;;;;;24.60;69.10;;;;;;4979126;28;19936;-73
2022/09/25 02:48:47;;;;;;;;;;;24.90;71.30;;;;;;4974090;28;19914;-77
2022/09/25 02:51:26;;;;;;;;;;;25.50;68.70;;;;;;4986215;28;19917;-77
2022/09/25 02:53:53;;;;;;;;;;;25.70;66.70;;;;;;4984568;28;20421;-71
2022/09/25 02:56:33;;;;;;;;;;;26.30;68.30;;;;;;4981250;28;19997;-75
2022/09/25 02:59:08;;;;;;;;;;;26.70;63.60;;;;;;4977697;28;19921;-76
2022/09/25 03:01:37;;;;;;;;;;;27.20;63.40;;;;;;4973470;28;19948;-73
2022/09/25 03:04:04;;;;;;;;;;;27.70;61.70;;;;;;4970226;28;19930;-74
2022/09/25 03:06:31;;;;;;;;;;;28.40;62.90;;;;;;4970338;28;20005;-73
2022/09/25 03:08:59;;;;;;;;;;;28.80;59.70;;;;;;4972193;28;20040;-75
2022/09/25 03:11:26;;;;;;;;;;;29.10;61.80;;;;;;4973563;28;20071;-75
2022/09/25 03:14:00;;;;;;;;;;;29.10;59.90;;;;;;4984092;28;19918;-77
2022/09/25 03:16:39;;;;;;;;;;;29.30;57.50;;;;;;4971859;28;19933;-78
2022/09/25 03:19:06;;;;;;;;;;;29.40;57.10;;;;;;4981922;28;19910;-75
2022/09/25 03:21:32;;;;;;;;;;;29.50;57.60;;;;;;4976236;28;19959;-73
2022/09/25 03:23:59;;;;;;;;;;;30.10;58.90;;;;;;4979976;28;19929;-78
2022/09/25 03:26:27;;;;;;;;;;;29.70;56.20;;;;;;4980500;28;19925;-76
2022/09/25 03:29:01;;;;;;;;;;;29.50;57.40;;;;;;4975609;28;19952;-79
2022/09/25 03:31:28;;;;;;;;;;;30.00;55.50;;;;;;4971288;28;19914;-76
2022/09/25 03:33:57;;;;;;;;;;;30.20;55.00;;;;;;4972777;28;19922;-74
2022/09/25 03:36:28;;;;;;;;;;;30.30;56.50;;;;;;4972650;28;19938;-76
2022/09/25 03:38:58;;;;;;;;;;;30.40;56.60;;;;;;4972435;28;20362;-72
2022/09/25 03:41:26;;;;;;;;;;;30.50;53.80;;;;;;4972742;28;19959;-70
2022/09/25 03:43:55;;;;;;;;;;;30.00;54.00;;;;;;4971159;28;20008;-75
2022/09/25 03:46:23;;;;;;;;;;;30.60;54.40;;;;;;4979197;28;19914;-76
2022/09/25 03:48:51;;;;;;;;;;;30.90;53.30;;;;;;4977858;28;19954;-75
2022/09/25 03:51:18;;;;;;;;;;;31.00;55.10;;;;;;4973803;28;19918;-71
2022/09/25 03:53:44;;;;;;;;;;;31.30;53.60;;;;;;4971720;28;19937;-77
2022/09/25 03:56:12;;;;;;;;;;;31.40;51.90;;;;;;4971053;28;20384;-77
2022/09/25 03:58:39;;;;;;;;;;;31.80;52.60;;;;;;4970845;28;19910;-77
2022/09/25 04:01:06;;;;;;;;;;;32.00;49.40;;;;;;4970751;28;19910;-79
2022/09/25 04:03:33;;;;;;;;;;;31.80;50.10;;;;;;4970565;28;19941;-78
2022/09/25 04:06:03;;;;;;;;;;;31.40;47.90;;;;;;4970835;28;19914;-77
2022/09/25 04:08:31;;;;;;;;;;;31.40;49.20;;;;;;4970805;28;20377;-76
2022/09/25 04:10:59;;;;;;;;;;;31.90;50.20;;;;;;4971644;28;19964;-77
2022/09/25 04:13:28;;;;;;;;;;;32.00;46.40;;;;;;4971471;28;19937;-78
2022/09/25 04:15:55;;;;;;;;;;;32.10;54.50;;;;;;4972549;28;19914;-78
2022/09/25 04:18:23;;;;;;;;;;;32.10;55.30;;;;;;4972798;28;19914;-70
2022/09/25 04:20:53;;;;;;;;;;;31.90;57.40;;;;;;4972316;28;20342;-77
2022/09/25 04:23:19;;;;;;;;;;;32.00;56.80;;;;;;4972242;28;19941;-70
2022/09/25 04:25:47;;;;;;;;;;;31.90;55.00;;;;;;4972284;28;19918;-75
2022/09/25 04:28:13;;;;;;;;;;;31.60;56.30;;;;;;4972099;28;20556;-75
2022/09/25 04:30:40;;;;;;;;;;;31.60;55.90;;;;;;4972181;28;19921;-78
2022/09/25 04:35:51;;;;;;;;;;;30.80;56.30;;;;;;4971766;28;20385;-77
2022/09/25 04:38:18;;;;;;;;;;;30.30;56.90;;;;;;4971936;28;19910;-77
2022/09/25 04:40:47;;;;;;;;;;;30.60;57.10;;;;;;4972249;28;19914;-77
2022/09/25 04:43:14;;;;;;;;;;;30.80;59.10;;;;;;4971803;28;20007;-77
2022/09/25 04:45:41;;;;;;;;;;;30.60;56.70;;;;;;4971669;28;19910;-76
2022/09/25 04:48:07;;;;;;;;;;;29.70;57.60;;;;;;4971408;28;19910;-76
2022/09/25 04:50:34;;;;;;;;;;;29.00;59.40;;;;;;4971691;28;20289;-78
2022/09/25 04:53:02;;;;;;;;;;;29.30;59.50;;;;;;4971772;28;20322;-77
2022/09/25 04:55:31;;;;;;;;;;;29.70;59.50;;;;;;4972044;28;19910;-76
2022/09/25 04:57:59;;;;;;;;;;;30.50;58.90;;;;;;4972053;28;19914;-77
2022/09/25 05:00:27;;;;;;;;;;;30.60;57.10;;;;;;4971609;28;19922;-78
2022/09/25 05:02:54;;;;;;;;;;;30.50;59.00;;;;;;4971908;28;19922;-77
2022/09/25 05:05:21;;;;;;;;;;;30.70;58.10;;;;;;4971782;28;19910;-78
2022/09/25 05:07:55;;;;;;;;;;;30.90;57.00;;;;;;4971621;28;19912;-76
2022/09/25 05:10:29;;;;;;;;;;;31.00;56.20;;;;;;4970440;28;20272;-77
2022/09/25 05:12:57;;;;;;;;;;;30.90;57.20;;;;;;4971589;28;20359;-78
2022/09/25 05:15:25;;;;;;;;;;;30.40;56.10;;;;;;4971482;28;19910;-77
2022/09/25 05:17:58;;;;;;;;;;;30.30;58.50;;;;;;4971492;28;20287;-77
2022/09/25 05:20:25;;;;;;;;;;;30.10;57.30;;;;;;4971505;28;19921;-76
2022/09/25 05:22:58;;;;;;;;;;;30.70;57.60;;;;;;4971315;28;19999;-75
2022/09/25 05:25:25;;;;;;;;;;;31.10;56.70;;;;;;4971600;28;19964;-76
2022/09/25 05:27:57;;;;;;;;;;;31.40;57.90;;;;;;4971293;28;19951;-77
2022/09/25 05:30:24;;;;;;;;;;;31.30;56.50;;;;;;4970680;28;19979;-79
2022/09/25 05:32:51;;;;;;;;;;;31.20;56.00;;;;;;4971374;28;19937;-79
2022/09/25 05:35:18;;;;;;;;;;;30.60;56.80;;;;;;4971052;28;19917;-77
2022/09/25 05:37:45;;;;;;;;;;;31.00;56.40;;;;;;4971636;28;19914;-79
2022/09/25 05:40:14;;;;;;;;;;;31.20;55.70;;;;;;4971551;28;19910;-79
2022/09/25 05:42:44;;;;;;;;;;;30.90;55.00;;;;;;4971121;28;19921;-79
2022/09/25 05:45:14;;;;;;;;;;;30.60;55.60;;;;;;4971099;28;19915;-78
2022/09/25 05:47:41;;;;;;;;;;;31.00;56.50;;;;;;4971710;28;19917;-77
2022/09/25 05:50:09;;;;;;;;;;;30.90;56.20;;;;;;4970959;28;19910;-78
2022/09/25 05:52:36;;;;;;;;;;;30.30;56.80;;;;;;4971010;28;19910;-78
2022/09/25 05:55:04;;;;;;;;;;;29.90;57.00;;;;;;4971218;28;19956;-79
2022/09/25 05:57:32;;;;;;;;;;;30.20;57.50;;;;;;4971190;28;19947;-75
2022/09/25 06:00:01;;;;;;;;;;;30.50;56.40;;;;;;4971250;28;19910;-76
2022/09/25 06:02:28;;;;;;;;;;;29.90;57.50;;;;;;4970228;28;20009;-70
2022/09/25 06:04:54;;;;;;;;;;;29.80;58.10;;;;;;4970650;28;19922;-79
2022/09/25 06:07:21;;;;;;;;;;;29.60;58.30;;;;;;4970429;28;19910;-76
2022/09/25 06:09:48;;;;;;;;;;;29.70;58.40;;;;;;4970615;28;19910;-77
2022/09/25 06:12:14;;;;;;;;;;;29.70;58.70;;;;;;4971010;28;20385;-79
2022/09/25 06:14:41;;;;;;;;;;;29.90;58.50;;;;;;4969258;28;19914;-76
2022/09/25 06:17:11;;;;;;;;;;;29.70;58.80;;;;;;4974293;28;19945;-78
2022/09/25 06:19:38;;;;;;;;;;;29.60;59.40;;;;;;5025997;28;19914;-73
2022/09/25 06:22:04;;;;;;;;;;;29.80;58.70;;;;;;4978608;28;19914;-78
2022/09/25 06:24:31;;;;;;;;;;;29.60;58.70;;;;;;4970223;28;19914;-78
2022/09/25 06:26:57;;;;;;;;;;;29.40;58.00;;;;;;4969395;28;19910;-72
2022/09/25 06:29:24;;;;;;;;;;;29.20;59.30;;;;;;4970282;28;19910;-78
2022/09/25 06:31:52;;;;;;;;;;;29.00;58.50;;;;;;4970117;28;19914;-75
2022/09/25 06:34:18;;;;;;;;;;;28.60;60.20;;;;;;4970786;28;19910;-75
2022/09/25 06:36:48;;;;;;;;;;;28.80;59.70;;;;;;4971155;28;19914;-77
2022/09/25 06:39:15;;;;;;;;;;;28.30;59.60;;;;;;4970588;28;20386;-77
2022/09/25 06:41:41;;;;;;;;;;;27.50;60.30;;;;;;4969940;28;19914;-76
2022/09/25 06:44:08;;;;;;;;;;;27.20;61.00;;;;;;4969808;28;19973;-77
2022/09/25 06:46:35;;;;;;;;;;;26.80;61.70;;;;;;4970338;28;19934;-77
2022/09/25 06:49:02;;;;;;;;;;;26.50;62.20;;;;;;4969889;28;19917;-77
2022/09/25 06:51:33;;;;;;;;;;;26.40;62.80;;;;;;4969777;28;19918;-75
2022/09/25 06:54:00;;;;;;;;;;;25.90;62.40;;;;;;4970154;28;19979;-76
2022/09/25 06:56:26;;;;;;;;;;;25.10;64.50;;;;;;4968884;28;19915;-77
2022/09/25 06:58:53;;;;;;;;;;;24.40;64.70;;;;;;4969903;28;19948;-72
2022/09/25 07:01:20;;;;;;;;;;;23.80;66.60;;;;;;4969909;28;19914;-75
2022/09/25 07:03:48;;;;;;;;;;;23.30;68.10;;;;;;4969706;28;20271;-76
2022/09/25 07:06:22;;;;;;;;;;;23.00;69.80;;;;;;4970093;28;20389;-71
2022/09/25 07:08:49;;;;;;;;;;;22.70;70.90;;;;;;4970371;28;19917;-73
2022/09/25 07:11:23;;;;;;;;;;;22.20;71.10;;;;;;4970209;28;19917;-77
2022/09/25 07:13:56;;;;;;;;;;;21.80;71.80;;;;;;4970191;28;19910;-76
2022/09/25 07:16:24;;;;;;;;;;;21.60;72.70;;;;;;4970103;28;19913;-75
2022/09/25 07:18:52;;;;;;;;;;;21.30;73.20;;;;;;4969987;28;19933;-76
2022/09/25 07:21:20;;;;;;;;;;;21.10;74.80;;;;;;4969655;28;20328;-77
2022/09/25 07:23:48;;;;;;;;;;;21.00;74.40;;;;;;4969642;28;20389;-68
2022/09/25 07:26:35;;;;;;;;;;;20.80;76.00;;;;;;4969655;28;19967;-70
2022/09/25 07:29:03;;;;;;;;;;;20.60;75.60;;;;;;4969680;28;19914;-74
2022/09/25 07:31:32;;;;;;;;;;;20.60;76.80;;;;;;4969498;28;20406;-76
2022/09/25 07:34:01;;;;;;;;;;;20.50;77.30;;;;;;4969373;28;19910;-73
2022/09/25 07:36:28;;;;;;;;;;;20.40;77.60;;;;;;4969710;28;19910;-77
2022/09/25 07:38:55;;;;;;;;;;;20.20;77.40;;;;;;4969994;28;19911;-73
2022/09/25 07:41:22;;;;;;;;;;;20.10;78.50;;;;;;4969944;28;19946;-78
2022/09/25 07:43:52;;;;;;;;;;;20.00;80.00;;;;;;4970585;28;20404;-72
2022/09/25 07:46:19;;;;;;;;;;;20.00;80.40;;;;;;4969642;28;19942;-77
2022/09/25 07:48:48;;;;;;;;;;;19.90;80.90;;;;;;4969403;28;19957;-73
2022/09/25 07:51:14;;;;;;;;;;;19.90;80.70;;;;;;4969244;28;19993;-77
2022/09/25 07:53:42;;;;;;;;;;;19.80;81.10;;;;;;4970250;28;19917;-76
2022/09/25 07:56:10;;;;;;;;;;;19.70;81.10;;;;;;4972598;28;19917;-71
2022/09/25 07:58:37;;;;;;;;;;;19.70;83.00;;;;;;4972677;28;20273;-75
2022/09/25 08:01:05;;;;;;;;;;;19.60;82.70;;;;;;4972204;28;19911;-77
2022/09/25 08:03:32;;;;;;;;;;;19.40;83.50;;;;;;4972496;28;19972;-77
2022/09/25 08:06:08;;;;;;;;;;;19.40;84.60;;;;;;4972503;28;19943;-78
2022/09/25 08:08:35;;;;;;;;;;;19.30;84.30;;;;;;4972694;28;19915;-71
2022/09/25 08:11:02;;;;;;;;;;;19.30;85.70;;;;;;4972546;28;20313;-76
2022/09/25 08:13:31;;;;;;;;;;;19.20;86.90;;;;;;4972273;28;20278;-78
2022/09/25 08:16:01;;;;;;;;;;;19.20;86.90;;;;;;4972590;28;19976;-72
2022/09/25 08:18:28;;;;;;;;;;;19.20;87.70;;;;;;4972635;28;19918;-73
2022/09/25 08:20:59;;;;;;;;;;;19.10;87.80;;;;;;4972495;28;19922;-77
2022/09/25 08:23:26;;;;;;;;;;;19.00;88.00;;;;;;4972518;28;19972;-78
2022/09/25 08:25:53;;;;;;;;;;;18.90;88.90;;;;;;4972646;28;20009;-77
2022/09/25 08:28:20;;;;;;;;;;;18.90;89.50;;;;;;4972522;28;20005;-76
2022/09/25 08:30:46;;;;;;;;;;;18.90;90.00;;;;;;4972591;28;19932;-79
2022/09/25 08:33:13;;;;;;;;;;;18.90;90.30;;;;;;4972148;28;19911;-75
2022/09/25 08:35:42;;;;;;;;;;;18.80;90.40;;;;;;4971902;28;19997;-78
2022/09/25 08:38:11;;;;;;;;;;;18.90;90.70;;;;;;4971882;28;19910;-76
2022/09/25 08:40:39;;;;;;;;;;;18.80;90.80;;;;;;4971781;28;19910;-76
2022/09/25 08:43:07;;;;;;;;;;;18.80;90.80;;;;;;4971977;28;19973;-77
2022/09/25 08:51:14;;;;;;;;;;;18.60;91.80;;;;;;4971679;28;19999;-78
2022/09/25 08:53:42;;;;;;;;;;;18.60;91.70;;;;;;4971806;28;20351;-75
2022/09/25 08:56:19;;;;;;;;;;;18.50;91.90;;;;;;4972151;28;19963;-79
2022/09/25 08:58:59;;;;;;;;;;;18.50;92.20;;;;;;4972160;28;20012;-74
2022/09/25 09:01:27;;;;;;;;;;;18.50;92.30;;;;;;4971910;28;20009;-75
2022/09/25 09:03:54;;;;;;;;;;;18.40;92.40;;;;;;4971527;28;19926;-72
2022/09/25 09:06:22;;;;;;;;;;;18.50;92.70;;;;;;4970905;28;19917;-79
2022/09/25 09:08:53;;;;;;;;;;;18.40;93.00;;;;;;4972045;28;20013;-76
2022/09/25 09:11:28;;;;;;;;;;;18.40;93.10;;;;;;4971523;28;19997;-78
2022/09/25 09:14:01;;;;;;;;;;;18.30;93.60;;;;;;4971588;28;19914;-71
2022/09/25 09:16:33;;;;;;;;;;;18.30;93.50;;;;;;4971594;28;19911;-75
2022/09/25 09:19:05;;;;;;;;;;;18.30;93.70;;;;;;4971771;28;19949;-72
2022/09/25 09:21:39;;;;;;;;;;;18.20;93.90;;;;;;4971618;28;19964;-76
2022/09/25 09:24:12;;;;;;;;;;;18.20;94.20;;;;;;4971663;28;19918;-75
2022/09/25 09:26:54;;;;;;;;;;;18.10;94.30;;;;;;4971444;28;20328;-72
2022/09/25 09:29:39;;;;;;;;;;;18.10;94.50;;;;;;4971460;28;19910;-72
2022/09/25 09:32:24;;;;;;;;;;;18.00;94.70;;;;;;4971268;28;19917;-74
2022/09/25 09:35:08;;;;;;;;;;;17.90;94.80;;;;;;4971070;28;19962;-70
2022/09/25 09:37:43;;;;;;;;;;;17.90;95.00;;;;;;4971219;28;20390;-70
2022/09/25 09:40:16;;;;;;;;;;;17.90;95.40;;;;;;4971095;28;19936;-75
2022/09/25 09:42:52;;;;;;;;;;;17.80;95.40;;;;;;4970986;28;19914;-77
2022/09/25 09:45:31;;;;;;;;;;;17.70;95.60;;;;;;4971043;28;20386;-79
2022/09/25 09:48:27;;;;;;;;;;;17.70;96.10;;;;;;4970264;28;19951;-77
2022/09/25 09:51:16;;;;;;;;;;;17.70;96.40;;;;;;4971294;28;19910;-80
2022/09/25 09:53:53;;;;;;;;;;;17.60;96.70;;;;;;4969513;28;20005;-81
2022/09/25 09:56:30;;;;;;;;;;;17.60;97.10;;;;;;4970920;28;19944;-80
2022/09/25 09:58:57;;;;;;;;;;;17.50;97.30;;;;;;4969495;28;19917;-79
2022/09/25 10:01:25;;;;;;;;;;;17.40;97.50;;;;;;4970905;28;19910;-76
2022/09/25 10:04:03;;;;;;;;;;;17.40;97.60;;;;;;4969362;28;19923;-74
2022/09/25 10:06:38;;;;;;;;;;;17.30;97.80;;;;;;4970403;28;19917;-80
2022/09/25 10:09:07;;;;;;;;;;;17.30;98.10;;;;;;4969282;28;19915;-77
2022/09/25 10:11:36;;;;;;;;;;;17.20;98.30;;;;;;4969202;28;19959;-77
2022/09/25 10:14:03;;;;;;;;;;;17.40;98.70;;;;;;4970874;28;20001;-72
2022/09/25 10:16:33;;;;;;;;;;;17.20;98.70;;;;;;4970336;28;20374;-75
2022/09/25 10:19:10;;;;;;;;;;;17.20;99.00;;;;;;4970490;28;19918;-79
2022/09/25 10:21:47;;;;;;;;;;;17.20;99.10;;;;;;4970426;28;20055;-77
2022/09/25 10:24:40;;;;;;;;;;;17.20;99.70;;;;;;4970562;28;19922;-79
2022/09/25 10:27:25;;;;;;;;;;;17.10;99.80;;;;;;4961152;28;19910;-69
2022/09/25 10:30:13;;;;;;;;;;;17.00;99.90;;;;;;4969103;28;19934;-79
2022/09/25 10:32:58;;;;;;;;;;;17.00;99.90;;;;;;4969059;28;19915;-78
2022/09/25 10:35:40;;;;;;;;;;;17.00;99.90;;;;;;4969967;28;20010;-72
2022/09/25 10:38:16;;;;;;;;;;;16.90;99.90;;;;;;4970563;28;19964;-73
2022/09/25 10:40:46;;;;;;;;;;;16.90;99.90;;;;;;4970508;28;19910;-76
2022/09/25 10:43:22;;;;;;;;;;;16.80;99.90;;;;;;4970425;28;19919;-77
2022/09/25 10:45:55;;;;;;;;;;;16.80;99.90;;;;;;4968965;28;19917;-75
2022/09/25 10:51:10;;;;;;;;;;;16.70;99.90;;;;;;4970149;28;19949;-71
2022/09/25 10:53:36;;;;;;;;;;;16.70;99.90;;;;;;4970414;28;19916;-68
2022/09/25 10:56:10;;;;;;;;;;;16.70;99.90;;;;;;4970159;28;19914;-72
2022/09/25 10:58:56;;;;;;;;;;;16.60;99.90;;;;;;4970029;28;20266;-69
2022/09/25 11:01:33;;;;;;;;;;;16.60;99.90;;;;;;4969524;28;20509;-69
2022/09/25 11:04:02;;;;;;;;;;;16.50;99.90;;;;;;4969273;28;19922;-70
2022/09/25 11:06:31;;;;;;;;;;;16.40;99.90;;;;;;4969734;28;19917;-71
2022/09/25 11:09:15;;;;;;;;;;;16.40;99.90;;;;;;4970156;28;19917;-69
2022/09/25 11:11:44;;;;;;;;;;;16.40;99.90;;;;;;4970217;28;20024;-75
2022/09/25 11:14:23;;;;;;;;;;;16.30;99.90;;;;;;4970147;28;19911;-71
2022/09/25 11:16:52;;;;;;;;;;;16.30;99.90;;;;;;4969579;28;19910;-77
2022/09/25 11:19:19;;;;;;;;;;;16.30;99.90;;;;;;4970071;28;19946;-76
2022/09/25 11:21:50;;;;;;;;;;;16.30;99.90;;;;;;4969902;28;19907;-70
2022/09/25 11:24:24;;;;;;;;;;;16.30;99.90;;;;;;4970158;28;20366;-76
2022/09/25 11:26:56;;;;;;;;;;;16.30;99.90;;;;;;4969809;28;19911;-78
2022/09/25 11:29:29;;;;;;;;;;;16.30;99.90;;;;;;4971314;28;19910;-71
2022/09/25 11:31:55;;;;;;;;;;;16.30;99.90;;;;;;4972884;28;19914;-77
2022/09/25 11:34:33;;;;;;;;;;;16.20;99.90;;;;;;4973091;28;19910;-74
2022/09/25 11:37:32;;;;;;;;;;;16.20;99.90;;;;;;4972880;28;19910;-74
2022/09/25 11:43:10;;;;;;;;;;;16.10;99.90;;;;;;4973031;28;20443;-75
2022/09/25 11:45:37;;;;;;;;;;;16.20;99.90;;;;;;4972798;28;20289;-75
2022/09/25 11:48:12;;;;;;;;;;;16.20;99.90;;;;;;4972658;28;19941;-74
2022/09/25 11:50:48;;;;;;;;;;;16.20;99.90;;;;;;4971487;28;19910;-77
2022/09/25 11:53:33;;;;;;;;;;;16.20;99.90;;;;;;4973094;28;20421;-76
2022/09/25 11:56:09;;;;;;;;;;;16.30;99.90;;;;;;4972931;28;19956;-76
2022/09/25 11:58:40;;;;;;;;;;;16.20;99.90;;;;;;4972620;28;20366;-79
2022/09/25 12:01:12;;;;;;;;;;;16.20;99.90;;;;;;4972692;28;19918;-74
2022/09/25 12:03:51;;;;;;;;;;;16.20;99.90;;;;;;4972296;28;19929;-74
2022/09/25 12:06:18;;;;;;;;;;;16.20;99.90;;;;;;4972362;28;19910;-75
2022/09/25 12:09:05;;;;;;;;;;;16.20;99.90;;;;;;4972188;28;19910;-78
2022/09/25 12:11:48;;;;;;;;;;;16.00;99.90;;;;;;4972420;28;19916;-76
2022/09/25 12:14:24;;;;;;;;;;;16.00;99.90;;;;;;4972763;28;20008;-77
2022/09/25 12:17:10;;;;;;;;;;;15.90;99.90;;;;;;4972601;28;19914;-74
2022/09/25 12:19:57;;;;;;;;;;;15.90;99.90;;;;;;4972687;28;20004;-76
2022/09/25 12:22:39;;;;;;;;;;;15.90;99.90;;;;;;4972516;28;20377;-75
2022/09/25 12:25:15;;;;;;;;;;;15.80;99.90;;;;;;4972591;28;20290;-76
2022/09/25 12:27:54;;;;;;;;;;;15.80;99.90;;;;;;4972563;28;19911;-71
2022/09/25 12:30:26;;;;;;;;;;;15.70;99.90;;;;;;4972518;28;19914;-75
2022/09/25 12:33:05;;;;;;;;;;;15.70;99.90;;;;;;4971958;28;19918;-76
2022/09/25 12:35:32;;;;;;;;;;;15.70;99.90;;;;;;4972355;28;19910;-78
2022/09/25 12:38:05;;;;;;;;;;;15.60;99.90;;;;;;4972484;28;20359;-75
2022/09/25 12:40:42;;;;;;;;;;;15.60;99.90;;;;;;4970102;28;19914;-72
2022/09/25 12:43:16;;;;;;;;;;;15.50;99.90;;;;;;4966775;28;20277;-74
2022/09/25 12:45:43;;;;;;;;;;;15.50;99.90;;;;;;4971346;28;20362;-74
2022/09/25 12:48:28;;;;;;;;;;;15.50;99.90;;;;;;4971608;28;19911;-72
2022/09/25 12:51:01;;;;;;;;;;;15.50;99.90;;;;;;4969788;28;20392;-72
2022/09/25 12:53:42;;;;;;;;;;;15.50;99.90;;;;;;4965411;28;19914;-70
2022/09/25 12:56:17;;;;;;;;;;;15.40;99.90;;;;;;4970968;28;19914;-69
2022/09/25 12:58:56;;;;;;;;;;;15.40;99.90;;;;;;4972481;28;20354;-72
2022/09/25 13:01:45;;;;;;;;;;;15.40;99.90;;;;;;4963081;28;19914;-68
2022/09/25 13:04:18;;;;;;;;;;;15.40;99.90;;;;;;4977289;28;19922;-71
2022/09/25 13:06:56;;;;;;;;;;;15.40;99.90;;;;;;4969848;28;19910;-75
2022/09/25 13:09:46;;;;;;;;;;;15.40;99.90;;;;;;4971060;28;20469;-73
2022/09/25 13:12:33;;;;;;;;;;;15.40;99.90;;;;;;4970383;28;20008;-70
2022/09/25 13:15:03;;;;;;;;;;;15.30;99.90;;;;;;4971809;28;19918;-71
2022/09/25 13:17:30;;;;;;;;;;;15.30;99.90;;;;;;4971238;28;19920;-70
2022/09/25 13:20:15;;;;;;;;;;;15.20;99.90;;;;;;4971095;28;19950;-69
2022/09/25 13:22:41;;;;;;;;;;;15.20;99.90;;;;;;4968898;28;19918;-71
2022/09/25 13:25:15;;;;;;;;;;;15.20;99.90;;;;;;4971031;28;19918;-70
2022/09/25 13:27:44;;;;;;;;;;;15.10;99.90;;;;;;4970825;28;19910;-69
2022/09/25 13:30:20;;;;;;;;;;;15.10;99.90;;;;;;4970456;28;19910;-69
2022/09/25 13:32:49;;;;;;;;;;;15.00;99.90;;;;;;4970333;28;19910;-70
2022/09/25 13:35:17;;;;;;;;;;;15.00;99.90;;;;;;4967097;28;19943;-70
2022/09/25 13:37:43;;;;;;;;;;;15.00;99.90;;;;;;4970511;28;20343;-69
2022/09/25 13:43:28;;;;;;;;;;;14.90;99.90;;;;;;4976610;28;19922;-68
2022/09/25 13:46:14;;;;;;;;;;;14.90;99.90;;;;;;4967804;28;19993;-70
2022/09/25 13:48:41;;;;;;;;;;;14.90;99.90;;;;;;4968852;28;19910;-69
2022/09/25 13:51:17;;;;;;;;;;;14.80;99.90;;;;;;4968469;28;19910;-69
2022/09/25 13:54:03;;;;;;;;;;;14.80;99.90;;;;;;4969437;28;20307;-74
2022/09/25 13:56:33;;;;;;;;;;;14.80;99.90;;;;;;4970515;28;20274;-69
2022/09/25 13:59:12;;;;;;;;;;;14.70;99.90;;;;;;4970717;28;19917;-76
2022/09/25 14:01:41;;;;;;;;;;;14.60;99.90;;;;;;4968144;28;19949;-68
2022/09/25 14:04:31;;;;;;;;;;;14.70;99.90;;;;;;4970162;28;19930;-77
2022/09/25 14:07:12;;;;;;;;;;;14.50;99.90;;;;;;4970387;28;19910;-75
2022/09/25 14:09:42;;;;;;;;;;;14.50;99.90;;;;;;4968029;28;19917;-77
2022/09/25 14:12:14;;;;;;;;;;;14.50;99.90;;;;;;4969974;28;19940;-76
2022/09/25 14:14:54;;;;;;;;;;;14.50;99.90;;;;;;4970204;28;19964;-77
2022/09/25 14:17:22;;;;;;;;;;;14.50;99.90;;;;;;4968618;28;19917;-79
2022/09/25 14:19:50;;;;;;;;;;;14.50;99.90;;;;;;4969959;28;19968;-76
2022/09/25 14:22:32;;;;;;;;;;;14.50;99.90;;;;;;4969575;28;19945;-75
2022/09/25 14:25:00;;;;;;;;;;;14.40;99.90;;;;;;4968074;28;20498;-75
2022/09/25 14:27:28;;;;;;;;;;;14.40;99.90;;;;;;4969032;28;19914;-72
2022/09/25 14:30:05;;;;;;;;;;;14.40;99.90;;;;;;4967637;28;19911;-73
2022/09/25 14:32:35;;;;;;;;;;;14.30;99.90;;;;;;4970116;28;19963;-71
2022/09/25 14:35:08;;;;;;;;;;;14.40;99.90;;;;;;4969761;28;19916;-76
2022/09/25 14:37:35;;;;;;;;;;;14.30;99.90;;;;;;4967516;28;20278;-77
2022/09/25 14:40:19;;;;;;;;;;;14.30;99.90;;;;;;4969930;28;19914;-80
2022/09/25 14:42:50;;;;;;;;;;;14.30;99.90;;;;;;4969004;28;20016;-77
2022/09/25 14:45:24;;;;;;;;;;;14.20;99.90;;;;;;4967658;28;20378;-76
2022/09/25 14:47:52;;;;;;;;;;;14.20;99.90;;;;;;4969946;28;20354;-77
2022/09/25 14:50:23;;;;;;;;;;;14.20;99.90;;;;;;4969493;28;19962;-76
2022/09/25 14:52:52;;;;;;;;;;;14.20;99.90;;;;;;4969742;28;19910;-75
2022/09/25 14:55:21;;;;;;;;;;;14.10;99.90;;;;;;4969950;28;20079;-69
2022/09/25 14:57:49;;;;;;;;;;;14.10;99.90;;;;;;4969831;28;20005;-69
2022/09/25 15:00:17;;;;;;;;;;;14.10;99.90;;;;;;4969682;28;19911;-72
2022/09/25 15:02:45;;;;;;;;;;;14.10;99.90;;;;;;4969244;28;20385;-75
2022/09/25 15:05:28;;;;;;;;;;;14.00;99.90;;;;;;4972252;28;20382;-74